Time,TemperatureF,DewpointF,PressureIn,WindDirection,WindDirectionDegrees,WindSpeedMPH,WindSpeedGustMPH,Humidity,HourlyPrecipIn,Conditions,Clouds,dailyrainin,SoftwareType,DateUTC
2013-06-19 00:03:00,74.9,65.3,29.97,ESE,104,0.0,1.0,72,0.00,,FEW250,0.00,VWS V14.01,2013-06-19 05:03:00,
2013-06-19 00:08:00,74.7,65.1,29.97,SE,140,0.0,1.0,72,0.00,,FEW250,0.00,VWS V14.01,2013-06-19 05:08:00,
2013-06-19 00:13:00,74.7,65.1,29.97,South,181,0.0,2.0,72,0.00,,FEW250,0.00,VWS V14.01,2013-06-19 05:13:00,
2013-06-19 00:18:00,74.6,65.0,29.98,ESE,120,0.0,3.0,72,0.00,,FEW250,0.00,VWS V14.01,2013-06-19 05:18:00,
2013-06-19 00:23:00,74.6,64.6,29.98,SE,134,0.0,3.0,71,0.00,,FEW250,0.00,VWS V14.01,2013-06-19 05:23:00,
2013-06-19 00:28:00,74.4,64.4,29.98,SE,134,0.0,3.0,71,0.00,,FEW250,0.00,VWS V14.01,2013-06-19 05:28:00,
2013-06-19 00:33:00,74.4,64.4,29.98,SE,136,0.0,3.0,71,0.00,,FEW250,0.00,VWS V14.01,2013-06-19 05:33:00,
2013-06-19 00:38:00,74.4,64.8,29.98,SE,144,0.0,3.0,72,0.00,,FEW250,0.00,VWS V14.01,2013-06-19 05:38:00,
2013-06-19 00:43:00,74.2,64.6,29.98,SE,144,0.0,3.0,72,0.00,,FEW250,0.00,VWS V14.01,2013-06-19 05:43:00,
2013-06-19 00:48:00,74.2,65.0,29.98,SE,144,0.0,3.0,73,0.00,,FEW250,0.00,VWS V14.01,2013-06-19 05:48:00,
2013-06-19 00:53:00,74.0,64.8,29.98,SSE,154,0.0,3.0,73,0.00,,FEW250,0.00,VWS V14.01,2013-06-19 05:53:00,
2013-06-19 00:58:00,73.9,64.7,29.98,SSE,154,0.0,3.0,73,0.00,,FEW250,0.00,VWS V14.01,2013-06-19 05:58:00,
2013-06-19 01:03:00,73.5,64.7,29.98,SSE,154,0.0,0.0,74,0.00,,FEW250,0.00,VWS V14.01,2013-06-19 06:03:00,
2013-06-19 01:08:00,73.2,64.8,29.98,SSE,154,0.0,0.0,75,0.00,,FEW250,0.00,VWS V14.01,2013-06-19 06:08:00,
2013-06-19 01:13:00,72.8,64.8,29.98,SSE,154,0.0,0.0,76,0.00,,FEW250,0.00,VWS V14.01,2013-06-19 06:13:00,
2013-06-19 01:18:00,72.5,64.9,29.97,SSE,154,0.0,0.0,77,0.00,,FEW250,0.00,VWS V14.01,2013-06-19 06:18:00,
2013-06-19 01:23:00,72.3,64.7,29.97,SSE,154,0.0,0.0,77,0.00,,FEW250,0.00,VWS V14.01,2013-06-19 06:23:00,
2013-06-19 01:28:00,72.1,64.9,29.97,SSE,154,0.0,1.0,78,0.00,,FEW250,0.00,VWS V14.01,2013-06-19 06:28:00,
2013-06-19 01:34:00,72.0,64.8,29.97,SSE,154,0.0,1.0,78,0.00,,FEW250,0.00,VWS V14.01,2013-06-19 06:34:00,
2013-06-19 01:39:00,72.0,65.1,29.97,SSE,154,0.0,1.0,79,0.00,,FEW250,0.00,VWS V14.01,2013-06-19 06:39:00,
2013-06-19 01:44:00,71.6,64.8,29.97,SSE,154,0.0,1.0,79,0.00,,FEW250,0.00,VWS V14.01,2013-06-19 06:44:00,
2013-06-19 01:49:00,71.5,65.0,29.98,SSE,154,0.0,1.0,80,0.00,,FEW250,0.00,VWS V14.01,2013-06-19 06:49:00,
2013-06-19 01:54:00,71.3,64.8,29.98,SSE,154,0.0,1.0,80,0.00,,FEW250,0.00,VWS V14.01,2013-06-19 06:54:00,
2013-06-19 01:59:00,71.3,64.8,29.98,SSE,154,0.0,1.0,80,0.00,,FEW250,0.00,VWS V14.01,2013-06-19 06:59:00,
2013-06-19 02:04:00,71.1,64.6,29.99,SSE,154,0.0,0.0,80,0.00,,FEW250,0.00,VWS V14.01,2013-06-19 07:04:00,
2013-06-19 02:09:00,70.6,64.5,29.99,SSE,154,0.0,0.0,81,0.00,,FEW250,0.00,VWS V14.01,2013-06-19 07:09:00,
2013-06-19 02:14:00,70.3,64.6,29.98,SSE,154,0.0,0.0,82,0.00,,FEW250,0.00,VWS V14.01,2013-06-19 07:14:00,
2013-06-19 02:19:00,69.9,64.2,29.98,SSE,154,0.0,0.0,82,0.00,,FEW250,0.00,VWS V14.01,2013-06-19 07:19:00,
2013-06-19 02:24:00,69.8,64.4,29.98,SSE,154,0.0,0.0,83,0.00,,FEW250,0.00,VWS V14.01,2013-06-19 07:24:00,
2013-06-19 02:29:00,69.8,64.8,29.98,SSE,154,0.0,0.0,84,0.00,,FEW250,0.00,VWS V14.01,2013-06-19 07:29:00,
2013-06-19 02:34:00,69.6,64.6,29.98,SSE,154,0.0,0.0,84,0.00,,FEW250,0.00,VWS V14.01,2013-06-19 07:34:00,
2013-06-19 02:39:00,69.4,64.4,29.98,SSE,154,0.0,0.0,84,0.00,,FEW250,0.00,VWS V14.01,2013-06-19 07:39:00,
2013-06-19 02:44:00,69.3,64.3,29.98,SSE,154,0.0,0.0,84,0.00,,FEW250,0.00,VWS V14.01,2013-06-19 07:44:00,
2013-06-19 02:49:00,69.1,64.4,29.98,SSE,154,0.0,0.0,85,0.00,,FEW250,0.00,VWS V14.01,2013-06-19 07:49:00,
2013-06-19 02:54:00,69.1,64.7,29.98,SSE,154,0.0,0.0,86,0.00,,FEW250,0.00,VWS V14.01,2013-06-19 07:54:00,
2013-06-19 02:59:00,69.1,64.7,29.98,SSE,154,0.0,0.0,86,0.00,,FEW250,0.00,VWS V14.01,2013-06-19 07:59:00,
2013-06-19 03:04:00,68.9,64.6,29.98,SSE,154,0.0,0.0,86,0.00,,FEW250,0.00,VWS V14.01,2013-06-19 08:04:00,
2013-06-19 03:09:00,68.8,64.4,29.98,SSE,154,0.0,0.0,86,0.00,,FEW250,0.00,VWS V14.01,2013-06-19 08:09:00,
2013-06-19 03:15:00,68.8,64.8,29.98,SSE,154,0.0,0.0,87,0.00,,FEW250,0.00,VWS V14.01,2013-06-19 08:15:00,
2013-06-19 03:20:00,68.6,64.6,29.98,SSE,154,0.0,0.0,87,0.00,,FEW250,0.00,VWS V14.01,2013-06-19 08:20:00,
2013-06-19 03:25:00,68.9,65.2,29.98,SSE,154,0.0,0.0,88,0.00,,FEW250,0.00,VWS V14.01,2013-06-19 08:25:00,
2013-06-19 03:30:00,68.8,65.1,29.97,SSE,154,0.0,0.0,88,0.00,,FEW250,0.00,VWS V14.01,2013-06-19 08:30:00,
2013-06-19 03:35:00,68.8,65.1,29.97,SSE,154,0.0,0.0,88,0.00,,FEW250,0.00,VWS V14.01,2013-06-19 08:35:00,
2013-06-19 03:40:00,68.6,64.9,29.97,SSE,154,0.0,0.0,88,0.00,,FEW250,0.00,VWS V14.01,2013-06-19 08:40:00,
2013-06-19 03:45:00,68.4,64.7,29.97,SSE,154,0.0,0.0,88,0.00,,FEW250,0.00,VWS V14.01,2013-06-19 08:45:00,
2013-06-19 03:50:00,68.3,64.6,29.97,SSE,154,0.0,0.0,88,0.00,,FEW250,0.00,VWS V14.01,2013-06-19 08:50:00,
2013-06-19 03:55:00,68.3,64.6,29.97,SSE,154,0.0,0.0,88,0.00,,FEW250,0.00,VWS V14.01,2013-06-19 08:55:00,
2013-06-19 04:00:00,68.1,64.4,29.97,SSE,154,0.0,0.0,88,0.00,,FEW250,0.00,VWS V14.01,2013-06-19 09:00:00,
2013-06-19 04:05:00,68.1,64.4,29.97,SSE,154,0.0,0.0,88,0.00,,FEW250,0.00,VWS V14.01,2013-06-19 09:05:00,
2013-06-19 04:10:00,68.3,64.9,29.97,SSE,154,0.0,0.0,89,0.00,,FEW250,0.00,VWS V14.01,2013-06-19 09:10:00,
2013-06-19 04:15:00,68.3,64.9,29.97,SSE,154,0.0,0.0,89,0.00,,FEW250,0.00,VWS V14.01,2013-06-19 09:15:00,
2013-06-19 04:20:00,68.4,65.0,29.97,SSE,154,0.0,0.0,89,0.00,,FEW250,0.00,VWS V14.01,2013-06-19 09:20:00,
2013-06-19 04:25:00,68.8,65.1,29.97,SSE,154,0.0,0.0,88,0.00,,FEW250,0.00,VWS V14.01,2013-06-19 09:25:00,
2013-06-19 04:30:00,68.9,65.2,29.97,SSE,154,0.0,0.0,88,0.00,,FEW250,0.00,VWS V14.01,2013-06-19 09:30:00,
2013-06-19 04:35:00,68.9,64.9,29.97,SSE,154,0.0,0.0,87,0.00,,FEW250,0.00,VWS V14.01,2013-06-19 09:35:00,
2013-06-19 04:40:00,68.9,64.9,29.97,SSE,154,0.0,0.0,87,0.00,,FEW250,0.00,VWS V14.01,2013-06-19 09:40:00,
2013-06-19 04:45:00,69.1,64.7,29.97,SSE,154,0.0,0.0,86,0.00,,FEW250,0.00,VWS V14.01,2013-06-19 09:45:00,
2013-06-19 04:50:00,69.4,64.7,29.97,SSE,154,0.0,0.0,85,0.00,,FEW250,0.00,VWS V14.01,2013-06-19 09:50:00,
2013-06-19 04:55:00,69.4,64.7,29.97,SSE,154,0.0,0.0,85,0.00,,FEW250,0.00,VWS V14.01,2013-06-19 09:55:00,
2013-06-19 05:00:00,69.8,65.1,29.98,SSE,154,0.0,0.0,85,0.00,,SCT250,0.00,VWS V14.01,2013-06-19 10:00:00,
2013-06-19 05:05:00,69.8,65.1,29.98,SSE,154,0.0,0.0,85,0.00,,SCT250,0.00,VWS V14.01,2013-06-19 10:05:00,
2013-06-19 05:11:00,69.4,64.4,29.98,SSE,154,0.0,0.0,84,0.00,,SCT250,0.00,VWS V14.01,2013-06-19 10:11:00,
2013-06-19 05:16:00,69.1,64.4,29.99,SSE,154,0.0,0.0,85,0.00,,SCT250,0.00,VWS V14.01,2013-06-19 10:16:00,
2013-06-19 05:21:00,68.4,63.7,29.99,SSE,154,0.0,0.0,85,0.00,,SCT250,0.00,VWS V14.01,2013-06-19 10:21:00,
2013-06-19 05:26:00,68.3,64.6,29.99,SSE,154,0.0,0.0,88,0.00,,SCT250,0.00,VWS V14.01,2013-06-19 10:26:00,
2013-06-19 05:31:00,68.4,65.0,29.99,SSE,154,0.0,0.0,89,0.00,,SCT250,0.00,VWS V14.01,2013-06-19 10:31:00,
2013-06-19 05:36:00,68.8,65.1,29.99,SSE,154,0.0,0.0,88,0.00,,SCT250,0.00,VWS V14.01,2013-06-19 10:36:00,
2013-06-19 05:41:00,68.4,64.4,29.99,SSE,154,0.0,0.0,87,0.00,,SCT250,0.00,VWS V14.01,2013-06-19 10:41:00,
2013-06-19 05:46:00,68.1,64.4,29.99,SSE,147,0.0,0.0,88,0.00,,SCT250,0.00,VWS V14.01,2013-06-19 10:46:00,
2013-06-19 05:51:00,67.9,64.5,29.99,SSE,147,0.0,0.0,89,0.00,,SCT250,0.00,VWS V14.01,2013-06-19 10:51:00,
2013-06-19 05:56:00,67.8,64.4,29.99,SSE,147,0.0,0.0,89,0.00,,SCT250,0.00,VWS V14.01,2013-06-19 10:56:00,
2013-06-19 06:01:00,67.4,64.1,29.99,SSE,147,0.0,0.0,89,0.00,,BKN250,0.00,VWS V14.01,2013-06-19 11:01:00,
2013-06-19 06:06:00,67.1,63.8,29.99,SSE,147,0.0,0.0,89,0.00,,BKN250,0.00,VWS V14.01,2013-06-19 11:06:00,
2013-06-19 06:11:00,66.9,63.9,29.99,SSE,147,0.0,0.0,90,0.00,,BKN250,0.00,VWS V14.01,2013-06-19 11:11:00,
2013-06-19 06:16:00,66.9,63.9,30.00,SSE,147,0.0,0.0,90,0.00,,BKN250,0.00,VWS V14.01,2013-06-19 11:16:00,
2013-06-19 06:21:00,66.9,63.9,30.00,SSE,147,0.0,0.0,90,0.00,,BKN250,0.00,VWS V14.01,2013-06-19 11:21:00,
2013-06-19 06:26:00,66.9,64.2,30.00,SSE,147,0.0,1.0,91,0.00,,BKN250,0.00,VWS V14.01,2013-06-19 11:26:00,
2013-06-19 06:31:00,66.9,64.5,30.00,SSE,147,0.0,1.0,92,0.00,,BKN250,0.00,VWS V14.01,2013-06-19 11:31:00,
2013-06-19 06:36:00,66.9,64.8,30.00,SSE,147,0.0,1.0,93,0.00,,BKN250,0.00,VWS V14.01,2013-06-19 11:36:00,
2013-06-19 06:41:00,67.1,65.0,30.00,SSE,147,0.0,1.0,93,0.00,,BKN250,0.00,VWS V14.01,2013-06-19 11:41:00,
2013-06-19 06:46:00,67.3,65.5,30.00,SSE,147,0.0,1.0,94,0.00,,BKN250,0.00,VWS V14.01,2013-06-19 11:46:00,
2013-06-19 06:52:00,67.3,65.5,30.00,SSE,147,0.0,1.0,94,0.00,,BKN250,0.00,VWS V14.01,2013-06-19 11:52:00,
2013-06-19 06:57:00,67.4,65.6,30.00,SSE,147,0.0,1.0,94,0.00,,BKN250,0.00,VWS V14.01,2013-06-19 11:57:00,
2013-06-19 07:02:00,67.8,66.0,30.00,SSE,147,0.0,0.0,94,0.00,,BKN250,0.00,VWS V14.01,2013-06-19 12:02:00,
2013-06-19 07:07:00,68.1,66.6,30.00,SSE,147,0.0,0.0,95,0.00,,BKN250,0.00,VWS V14.01,2013-06-19 12:07:00,
2013-06-19 07:12:00,68.4,66.6,30.00,SSE,147,0.0,0.0,94,0.00,,BKN250,0.00,VWS V14.01,2013-06-19 12:12:00,
2013-06-19 07:17:00,68.8,67.0,30.00,SSE,147,0.0,0.0,94,0.00,,BKN250,0.00,VWS V14.01,2013-06-19 12:17:00,
2013-06-19 07:22:00,69.1,67.3,30.00,SSE,147,0.0,0.0,94,0.00,,BKN250,0.00,VWS V14.01,2013-06-19 12:22:00,
2013-06-19 07:27:00,69.3,67.2,30.00,SSE,147,0.0,2.0,93,0.00,,BKN250,0.00,VWS V14.01,2013-06-19 12:27:00,
2013-06-19 07:32:00,69.4,67.3,30.01,SSE,147,0.0,2.0,93,0.00,,BKN250,0.00,VWS V14.01,2013-06-19 12:32:00,
2013-06-19 07:37:00,69.9,67.5,30.01,SSE,147,0.0,2.0,92,0.00,,BKN250,0.00,VWS V14.01,2013-06-19 12:37:00,
2013-06-19 07:42:00,70.3,67.9,30.01,SSE,147,0.0,2.0,92,0.00,,BKN250,0.00,VWS V14.01,2013-06-19 12:42:00,
2013-06-19 07:47:00,71.1,68.0,30.01,SSE,147,0.0,2.0,90,0.00,,BKN250,0.00,VWS V14.01,2013-06-19 12:47:00,
2013-06-19 07:52:00,72.0,67.6,30.01,SE,137,0.0,3.0,86,0.00,,BKN250,0.00,VWS V14.01,2013-06-19 12:52:00,
2013-06-19 07:57:00,72.7,67.6,30.01,SE,140,0.0,3.0,84,0.00,,BKN250,0.00,VWS V14.01,2013-06-19 12:57:00,
2013-06-19 08:00:00,73.0,67.5,30.01,SE,141,0.0,3.0,83,0.00,,OVC041CB,0.00,VWS V14.01,2013-06-19 13:00:00,
2013-06-19 08:02:00,73.2,67.4,30.01,SE,140,0.0,1.0,82,0.00,,SCT250,0.00,VWS V14.01,2013-06-19 13:02:00,
2013-06-19 08:07:00,73.9,67.7,30.01,SE,137,1.0,1.0,81,0.00,,SCT250,0.00,VWS V14.01,2013-06-19 13:07:00,
2013-06-19 08:12:00,74.2,67.6,30.01,SE,141,0.0,2.0,80,0.00,,SCT250,0.00,VWS V14.01,2013-06-19 13:12:00,
2013-06-19 08:17:00,74.7,67.8,30.02,SE,140,0.0,2.0,79,0.00,,SCT250,0.00,VWS V14.01,2013-06-19 13:17:00,
2013-06-19 08:22:00,75.1,68.2,30.02,SE,124,0.0,2.0,79,0.00,,SCT250,0.00,VWS V14.01,2013-06-19 13:22:00,
2013-06-19 08:27:00,75.3,68.0,30.02,SW,215,0.0,3.0,78,0.00,,SCT250,0.00,VWS V14.01,2013-06-19 13:27:00,
2013-06-19 08:32:00,75.4,67.7,30.03,SSW,209,0.0,3.0,77,0.00,,SCT250,0.00,VWS V14.01,2013-06-19 13:32:00,
2013-06-19 08:37:00,75.8,67.7,30.03,ESE,121,0.0,3.0,76,0.00,,SCT250,0.00,VWS V14.01,2013-06-19 13:37:00,
2013-06-19 08:42:00,76.3,67.8,30.03,SE,126,0.0,3.0,75,0.00,,SCT250,0.00,VWS V14.01,2013-06-19 13:42:00,
2013-06-19 08:47:00,76.7,67.8,30.03,SSE,165,0.0,3.0,74,0.00,,SCT250,0.00,VWS V14.01,2013-06-19 13:47:00,
2013-06-19 08:52:00,77.2,68.3,30.03,SE,140,3.0,5.0,74,0.00,,SCT250,0.00,VWS V14.01,2013-06-19 13:52:00,
2013-06-19 08:58:00,77.6,67.5,30.03,SE,140,0.0,5.0,71,0.00,,SCT250,0.00,VWS V14.01,2013-06-19 13:58:00,
2013-06-19 09:03:00,77.6,67.1,30.03,South,186,3.0,5.0,70,0.00,,SCT250,0.00,VWS V14.01,2013-06-19 14:03:00,
2013-06-19 09:08:00,77.6,67.9,30.03,South,172,2.0,7.0,72,0.00,,SCT250,0.00,VWS V14.01,2013-06-19 14:08:00,
2013-06-19 09:13:00,77.9,67.3,30.03,South,189,0.0,7.0,70,0.00,,SCT250,0.00,VWS V14.01,2013-06-19 14:13:00,
2013-06-19 09:18:00,77.7,66.7,30.03,SSW,193,0.0,7.0,69,0.00,,SCT250,0.00,VWS V14.01,2013-06-19 14:18:00,
2013-06-19 09:23:00,77.6,67.5,30.03,SSW,196,2.0,7.0,71,0.00,,SCT250,0.00,VWS V14.01,2013-06-19 14:23:00,
2013-06-19 09:28:00,77.6,67.1,30.03,SSW,192,0.0,8.0,70,0.00,,SCT250,0.00,VWS V14.01,2013-06-19 14:28:00,
2013-06-19 09:33:00,78.3,67.3,30.03,SE,128,1.0,8.0,69,0.00,,SCT250,0.00,VWS V14.01,2013-06-19 14:33:00,
2013-06-19 09:38:00,78.5,67.9,30.03,SSW,202,2.0,10.0,70,0.00,,SCT250,0.00,VWS V14.01,2013-06-19 14:38:00,
2013-06-19 09:43:00,78.6,67.6,30.03,SSE,155,2.0,10.0,69,0.00,,SCT250,0.00,VWS V14.01,2013-06-19 14:43:00,
2013-06-19 09:48:00,79.2,67.7,30.03,South,189,0.0,10.0,68,0.00,,SCT250,0.00,VWS V14.01,2013-06-19 14:48:00,
2013-06-19 09:53:00,79.4,68.3,30.03,South,182,2.0,10.0,69,0.00,,SCT250,0.00,VWS V14.01,2013-06-19 14:53:00,
2013-06-19 09:58:00,79.4,68.3,30.03,SSW,205,0.0,10.0,69,0.00,,SCT250,0.00,VWS V14.01,2013-06-19 14:58:00,
2013-06-19 10:03:00,79.9,68.4,30.02,NW,312,0.0,7.0,68,0.00,,SCT250,0.00,VWS V14.01,2013-06-19 15:03:00,
2013-06-19 10:08:00,80.5,69.0,30.02,SSW,200,0.0,7.0,68,0.00,,SCT250,0.00,VWS V14.01,2013-06-19 15:08:00,
2013-06-19 10:13:00,80.7,68.7,30.02,SE,141,0.0,7.0,67,0.00,,SCT250,0.00,VWS V14.01,2013-06-19 15:13:00,
2013-06-19 10:18:00,80.5,68.1,30.00,ENE,75,5.0,7.0,66,0.00,,SCT250,0.00,VWS V14.01,2013-06-19 15:18:00,
2013-06-19 10:23:00,79.9,68.0,30.00,SE,134,1.0,7.0,67,0.00,,SCT250,0.00,VWS V14.01,2013-06-19 15:23:00,
2013-06-19 10:28:00,79.9,68.8,30.00,East,97,2.0,8.0,69,0.00,,SCT250,0.00,VWS V14.01,2013-06-19 15:28:00,
2013-06-19 10:33:00,80.5,68.5,30.00,East,100,2.0,8.0,67,0.00,,SCT250,0.00,VWS V14.01,2013-06-19 15:33:00,
2013-06-19 10:38:00,80.9,69.8,30.00,ENE,78,2.0,8.0,69,0.00,,SCT250,0.00,VWS V14.01,2013-06-19 15:38:00,
2013-06-19 10:43:00,81.2,68.8,30.00,ESE,112,0.0,8.0,66,0.00,,SCT250,0.00,VWS V14.01,2013-06-19 15:43:00,
2013-06-19 10:48:00,81.1,68.2,30.00,South,172,6.0,8.0,65,0.00,,SCT250,0.00,VWS V14.01,2013-06-19 15:48:00,
2013-06-19 10:54:00,81.2,68.3,30.00,SE,145,0.0,8.0,65,0.00,,SCT250,0.00,VWS V14.01,2013-06-19 15:54:00,
2013-06-19 10:59:00,81.2,67.9,30.00,East,83,3.0,8.0,64,0.00,,SCT250,0.00,VWS V14.01,2013-06-19 15:59:00,
2013-06-19 11:04:00,81.2,68.3,30.01,SE,133,10.0,10.0,65,0.00,,SCT250,0.00,VWS V14.01,2013-06-19 16:04:00,
2013-06-19 11:09:00,81.6,67.8,30.01,SE,128,0.0,10.0,63,0.00,,SCT250,0.00,VWS V14.01,2013-06-19 16:09:00,
2013-06-19 11:14:00,81.4,67.1,30.01,SE,127,5.0,11.0,62,0.00,,SCT250,0.00,VWS V14.01,2013-06-19 16:14:00,
2013-06-19 11:19:00,81.6,68.7,30.01,ENE,73,0.0,11.0,65,0.00,,SCT250,0.00,VWS V14.01,2013-06-19 16:19:00,
2013-06-19 11:24:00,81.8,68.0,30.01,SSW,208,0.0,11.0,63,0.00,,SCT250,0.00,VWS V14.01,2013-06-19 16:24:00,
2013-06-19 11:29:00,81.8,66.6,30.01,SSE,165,5.0,11.0,60,0.00,,SCT250,0.00,VWS V14.01,2013-06-19 16:29:00,
2013-06-19 11:34:00,81.8,68.0,30.00,ENE,65,2.0,11.0,63,0.00,,SCT250,0.00,VWS V14.01,2013-06-19 16:34:00,
2013-06-19 11:39:00,82.0,67.7,30.00,ENE,58,5.0,14.0,62,0.00,,SCT250,0.00,VWS V14.01,2013-06-19 16:39:00,
2013-06-19 11:44:00,82.0,68.6,30.00,ENE,59,7.0,14.0,64,0.00,,SCT250,0.00,VWS V14.01,2013-06-19 16:44:00,
2013-06-19 11:49:00,82.0,66.8,30.00,ENE,68,10.0,14.0,60,0.00,,SCT250,0.00,VWS V14.01,2013-06-19 16:49:00,
2013-06-19 11:54:00,82.2,68.4,30.00,East,97,0.0,14.0,63,0.00,,SCT250,0.00,VWS V14.01,2013-06-19 16:54:00,
2013-06-19 11:59:00,82.6,68.3,30.00,South,189,7.0,14.0,62,0.00,,SCT250,0.00,VWS V14.01,2013-06-19 16:59:00,
2013-06-19 12:04:00,82.8,68.9,30.00,SSE,168,2.0,10.0,63,0.00,,BKN250,0.00,VWS V14.01,2013-06-19 17:04:00,
2013-06-19 12:09:00,82.6,67.3,30.00,East,82,5.0,13.0,60,0.00,,BKN250,0.00,VWS V14.01,2013-06-19 17:09:00,
2013-06-19 12:14:00,83.0,69.1,30.00,SE,143,10.0,13.0,63,0.00,,BKN250,0.00,VWS V14.01,2013-06-19 17:14:00,
2013-06-19 12:19:00,82.8,69.8,30.00,South,179,6.0,13.0,65,0.00,,BKN250,0.00,VWS V14.01,2013-06-19 17:19:00,
2013-06-19 12:24:00,83.2,68.8,30.00,SE,137,2.0,13.0,62,0.00,,BKN250,0.00,VWS V14.01,2013-06-19 17:24:00,
2013-06-19 12:29:00,82.8,67.0,29.99,East,89,3.0,13.0,59,0.00,,BKN250,0.00,VWS V14.01,2013-06-19 17:29:00,
2013-06-19 12:34:00,83.0,68.2,29.99,SE,138,2.0,13.0,61,0.00,,BKN250,0.00,VWS V14.01,2013-06-19 17:34:00,
2013-06-19 12:39:00,82.6,67.3,29.99,East,80,3.0,13.0,60,0.00,,BKN250,0.00,VWS V14.01,2013-06-19 17:39:00,
2013-06-19 12:44:00,82.8,67.5,29.99,SSW,203,5.0,13.0,60,0.00,,BKN250,0.00,VWS V14.01,2013-06-19 17:44:00,
2013-06-19 12:50:00,83.6,69.7,29.99,SE,136,0.0,13.0,63,0.00,,BKN250,0.00,VWS V14.01,2013-06-19 17:50:00,
2013-06-19 12:55:00,83.8,68.9,29.99,East,82,5.0,13.0,61,0.00,,BKN250,0.00,VWS V14.01,2013-06-19 17:55:00,
2013-06-19 13:00:00,83.8,68.0,30.00,South,184,2.0,13.0,59,0.00,,BKN250,0.00,VWS V14.01,2013-06-19 18:00:00,
2013-06-19 13:05:00,84.3,68.4,30.00,WSW,239,5.0,10.0,59,0.00,,BKN250,0.00,VWS V14.01,2013-06-19 18:05:00,
2013-06-19 13:10:00,84.5,67.6,30.00,SE,138,5.0,10.0,57,0.00,,BKN250,0.00,VWS V14.01,2013-06-19 18:10:00,
2013-06-19 13:15:00,84.9,69.0,30.00,South,169,2.0,10.0,59,0.00,,BKN250,0.00,VWS V14.01,2013-06-19 18:15:00,
2013-06-19 13:20:00,84.9,66.4,30.00,SSE,157,5.0,11.0,54,0.00,,BKN250,0.00,VWS V14.01,2013-06-19 18:20:00,
2013-06-19 13:25:00,85.1,66.6,30.00,SW,230,5.0,11.0,54,0.00,,BKN250,0.00,VWS V14.01,2013-06-19 18:25:00,
2013-06-19 13:30:00,85.3,67.8,30.00,ESE,113,2.0,11.0,56,0.00,,BKN250,0.00,VWS V14.01,2013-06-19 18:30:00,
2013-06-19 13:35:00,84.9,67.5,30.00,SE,134,5.0,11.0,56,0.00,,BKN250,0.00,VWS V14.01,2013-06-19 18:35:00,
2013-06-19 13:40:00,84.5,67.6,30.00,WSW,248,2.0,11.0,57,0.00,,BKN250,0.00,VWS V14.01,2013-06-19 18:40:00,
2013-06-19 13:45:00,84.7,65.7,29.99,ESE,107,0.0,11.0,53,0.00,,BKN250,0.00,VWS V14.01,2013-06-19 18:45:00,
2013-06-19 13:50:00,84.9,68.5,29.99,ESE,109,3.0,11.0,58,0.00,,BKN250,0.00,VWS V14.01,2013-06-19 18:50:00,
2013-06-19 13:55:00,85.5,68.0,29.99,North,10,0.0,11.0,56,0.00,,BKN250,0.00,VWS V14.01,2013-06-19 18:55:00,
2013-06-19 14:00:00,85.5,68.5,29.98,SSE,160,3.0,3.0,57,0.00,,BKN250,0.00,VWS V14.01,2013-06-19 19:00:00,
2013-06-19 14:05:00,84.9,66.9,29.98,East,80,7.0,10.0,55,0.00,,BKN250,0.00,VWS V14.01,2013-06-19 19:05:00,
2013-06-19 14:10:00,84.5,67.6,29.98,SW,224,1.0,10.0,57,0.00,,BKN250,0.00,VWS V14.01,2013-06-19 19:10:00,
2013-06-19 14:16:00,84.3,67.4,29.98,SW,223,1.0,10.0,57,0.00,,BKN250,0.00,VWS V14.01,2013-06-19 19:16:00,
2013-06-19 14:21:00,84.3,66.9,29.98,South,181,5.0,10.0,56,0.00,,BKN250,0.00,VWS V14.01,2013-06-19 19:21:00,
2013-06-19 14:26:00,84.7,66.8,29.98,East,92,2.0,10.0,55,0.00,,BKN250,0.00,VWS V14.01,2013-06-19 19:26:00,
2013-06-19 14:31:00,84.9,66.9,29.99,ENE,68,0.0,10.0,55,0.00,,BKN250,0.00,VWS V14.01,2013-06-19 19:31:00,
2013-06-19 14:36:00,84.7,67.8,29.99,ENE,61,2.0,10.0,57,0.00,,BKN250,0.00,VWS V14.01,2013-06-19 19:36:00,
2013-06-19 14:41:00,84.7,67.3,29.99,East,90,5.0,10.0,56,0.00,,BKN250,0.00,VWS V14.01,2013-06-19 19:41:00,
2013-06-19 14:46:00,84.9,66.9,29.98,South,178,2.0,10.0,55,0.00,,BKN250,0.00,VWS V14.01,2013-06-19 19:46:00,
2013-06-19 14:51:00,85.1,66.6,29.98,SW,234,2.0,10.0,54,0.00,,BKN250,0.00,VWS V14.01,2013-06-19 19:51:00,
2013-06-19 14:56:00,85.5,65.9,29.98,SSW,213,5.0,10.0,52,0.00,,BKN250,0.00,VWS V14.01,2013-06-19 19:56:00,
2013-06-19 15:01:00,85.5,65.9,29.97,East,79,7.0,7.0,52,0.00,,OVC250,0.00,VWS V14.01,2013-06-19 20:01:00,
2013-06-19 15:06:00,84.7,66.8,29.97,East,99,7.0,13.0,55,0.00,,OVC250,0.00,VWS V14.01,2013-06-19 20:06:00,
2013-06-19 15:11:00,84.7,66.2,29.97,ENE,72,1.0,13.0,54,0.00,,OVC250,0.00,VWS V14.01,2013-06-19 20:11:00,
2013-06-19 15:16:00,84.9,65.9,29.96,WNW,292,2.0,13.0,53,0.00,,OVC250,0.00,VWS V14.01,2013-06-19 20:16:00,
2013-06-19 15:21:00,84.7,65.7,29.96,ESE,107,2.0,13.0,53,0.00,,OVC250,0.00,VWS V14.01,2013-06-19 20:21:00,
2013-06-19 15:26:00,84.7,65.7,29.96,East,90,0.0,13.0,53,0.00,,OVC250,0.00,VWS V14.01,2013-06-19 20:26:00,
2013-06-19 15:31:00,85.1,66.1,29.97,SE,141,3.0,13.0,53,0.00,,OVC250,0.00,VWS V14.01,2013-06-19 20:31:00,
2013-06-19 15:36:00,85.5,67.0,29.97,South,171,3.0,13.0,54,0.00,,OVC250,0.00,VWS V14.01,2013-06-19 20:36:00,
2013-06-19 15:41:00,85.3,65.7,29.97,SSE,167,6.0,13.0,52,0.00,,OVC250,0.00,VWS V14.01,2013-06-19 20:41:00,
2013-06-19 15:46:00,84.9,65.9,29.96,South,185,1.0,13.0,53,0.00,,OVC250,0.00,VWS V14.01,2013-06-19 20:46:00,
2013-06-19 15:51:00,84.7,65.7,29.96,SE,124,5.0,13.0,53,0.00,,OVC250,0.00,VWS V14.01,2013-06-19 20:51:00,
2013-06-19 15:57:00,84.7,65.1,29.96,SW,220,3.0,13.0,52,0.00,,OVC250,0.00,VWS V14.01,2013-06-19 20:57:00,
2013-06-19 16:00:00,84.9,65.9,29.96,South,191,6.0,13.0,53,0.00,,OVC041CB,0.00,VWS V14.01,2013-06-19 21:00:00,
2013-06-19 16:02:00,85.1,65.5,29.96,SSE,161,1.0,6.0,52,0.00,,OVC250,0.00,VWS V14.01,2013-06-19 21:02:00,
2013-06-19 16:07:00,85.1,65.5,29.96,East,99,1.0,12.0,52,0.00,,OVC250,0.00,VWS V14.01,2013-06-19 21:07:00,
2013-06-19 16:12:00,84.9,66.4,29.96,East,97,3.0,12.0,54,0.00,,OVC250,0.00,VWS V14.01,2013-06-19 21:12:00,
2013-06-19 16:17:00,84.7,64.6,29.95,ESE,106,3.0,12.0,51,0.00,,OVC250,0.00,VWS V14.01,2013-06-19 21:17:00,
2013-06-19 16:22:00,84.5,66.1,29.95,South,171,6.0,12.0,54,0.00,,OVC250,0.00,VWS V14.01,2013-06-19 21:22:00,
2013-06-19 16:27:00,84.7,65.7,29.95,NE,48,0.0,12.0,53,0.00,,OVC250,0.00,VWS V14.01,2013-06-19 21:27:00,
2013-06-19 16:32:00,84.7,66.2,29.94,ESE,102,3.0,12.0,54,0.00,,OVC250,0.00,VWS V14.01,2013-06-19 21:32:00,
2013-06-19 16:37:00,84.7,66.2,29.94,SE,134,8.0,12.0,54,0.00,,OVC250,0.00,VWS V14.01,2013-06-19 21:37:00,
2013-06-19 16:42:00,84.5,65.5,29.94,East,93,0.0,12.0,53,0.00,,OVC250,0.00,VWS V14.01,2013-06-19 21:42:00,
2013-06-19 16:47:00,84.3,64.8,29.94,SE,145,6.0,12.0,52,0.00,,OVC250,0.00,VWS V14.01,2013-06-19 21:47:00,
2013-06-19 16:52:00,84.1,66.2,29.94,ENE,59,7.0,12.0,55,0.00,,OVC250,0.00,VWS V14.01,2013-06-19 21:52:00,
2013-06-19 16:57:00,84.1,66.7,29.94,ESE,109,2.0,12.0,56,0.00,,OVC250,0.00,VWS V14.01,2013-06-19 21:57:00,
2013-06-19 17:00:00,84.1,66.7,29.93,East,93,3.0,12.0,56,0.00,,OVC041CB,0.00,VWS V14.01,2013-06-19 22:00:00,
2013-06-19 17:02:00,84.1,66.7,29.93,ESE,102,0.0,7.0,56,0.00,,OVC250,0.00,VWS V14.01,2013-06-19 22:02:00,
2013-06-19 17:07:00,84.1,67.2,29.93,SE,130,5.0,7.0,57,0.00,,OVC250,0.00,VWS V14.01,2013-06-19 22:07:00,
2013-06-19 17:12:00,84.0,67.7,29.93,SE,133,0.0,10.0,58,0.00,,OVC250,0.00,VWS V14.01,2013-06-19 22:12:00,
2013-06-19 17:17:00,84.0,67.1,29.93,East,86,0.0,10.0,57,0.00,,OVC250,0.00,VWS V14.01,2013-06-19 22:17:00,
2013-06-19 17:22:00,84.1,67.7,29.93,ENE,72,2.0,10.0,58,0.00,,OVC250,0.00,VWS V14.01,2013-06-19 22:22:00,
2013-06-19 17:27:00,84.1,68.2,29.93,ENE,62,2.0,10.0,59,0.00,,OVC250,0.00,VWS V14.01,2013-06-19 22:27:00,
2013-06-19 17:32:00,83.8,67.0,29.93,East,100,5.0,12.0,57,0.00,,OVC250,0.00,VWS V14.01,2013-06-19 22:32:00,
2013-06-19 17:37:00,83.8,67.5,29.93,East,92,2.0,12.0,58,0.00,,OVC250,0.00,VWS V14.01,2013-06-19 22:37:00,
2013-06-19 17:42:00,83.8,67.0,29.93,South,191,0.0,12.0,57,0.00,,OVC250,0.00,VWS V14.01,2013-06-19 22:42:00,
2013-06-19 17:47:00,83.6,67.3,29.93,ENE,69,3.0,12.0,58,0.00,,OVC250,0.00,VWS V14.01,2013-06-19 22:47:00,
2013-06-19 17:53:00,83.6,67.3,29.93,ESE,123,7.0,12.0,58,0.00,,OVC250,0.00,VWS V14.01,2013-06-19 22:53:00,
2013-06-19 17:58:00,83.4,67.1,29.93,ENE,75,0.0,13.0,58,0.00,,OVC250,0.00,VWS V14.01,2013-06-19 22:58:00,
2013-06-19 18:03:00,83.6,67.3,29.93,SSE,164,2.0,7.0,58,0.00,,OVC250,0.00,VWS V14.01,2013-06-19 23:03:00,
2013-06-19 18:08:00,83.6,67.3,29.93,East,97,3.0,7.0,58,0.00,,OVC250,0.00,VWS V14.01,2013-06-19 23:08:00,
2013-06-19 18:13:00,83.6,67.3,29.93,East,95,2.0,7.0,58,0.00,,OVC250,0.00,VWS V14.01,2013-06-19 23:13:00,
2013-06-19 18:18:00,83.8,68.0,29.93,East,82,2.0,7.0,59,0.00,,OVC250,0.00,VWS V14.01,2013-06-19 23:18:00,
2013-06-19 18:23:00,84.0,68.1,29.93,East,88,2.0,7.0,59,0.00,,OVC250,0.00,VWS V14.01,2013-06-19 23:23:00,
2013-06-19 18:28:00,83.8,67.0,29.93,East,85,2.0,7.0,57,0.00,,OVC250,0.00,VWS V14.01,2013-06-19 23:28:00,
2013-06-19 18:33:00,83.6,68.3,29.93,NE,44,2.0,7.0,60,0.00,,OVC250,0.00,VWS V14.01,2013-06-19 23:33:00,
2013-06-19 18:38:00,83.4,68.1,29.93,East,88,5.0,7.0,60,0.00,,OVC250,0.00,VWS V14.01,2013-06-19 23:38:00,
2013-06-19 18:43:00,83.4,68.6,29.93,ESE,110,2.0,7.0,61,0.00,,OVC250,0.00,VWS V14.01,2013-06-19 23:43:00,
2013-06-19 18:48:00,83.4,69.0,29.93,ENE,72,6.0,7.0,62,0.00,,OVC250,0.00,VWS V14.01,2013-06-19 23:48:00,
2013-06-19 18:53:00,83.4,68.6,29.93,ESE,119,1.0,7.0,61,0.00,,OVC250,0.00,VWS V14.01,2013-06-19 23:53:00,
2013-06-19 18:58:00,83.4,68.6,29.93,ESE,110,0.0,7.0,61,0.00,,OVC250,0.00,VWS V14.01,2013-06-19 23:58:00,
2013-06-19 19:03:00,83.2,68.4,29.93,East,88,2.0,5.0,61,0.00,,BKN250,0.00,VWS V14.01,2013-06-20 00:03:00,
2013-06-19 19:08:00,83.2,68.4,29.93,SE,144,5.0,6.0,61,0.00,,BKN250,0.00,VWS V14.01,2013-06-20 00:08:00,
2013-06-19 19:13:00,83.4,68.6,29.93,East,79,2.0,6.0,61,0.00,,BKN250,0.00,VWS V14.01,2013-06-20 00:13:00,
2013-06-19 19:18:00,83.2,68.4,29.92,ESE,120,3.0,7.0,61,0.00,,BKN250,0.00,VWS V14.01,2013-06-20 00:18:00,
2013-06-19 19:23:00,83.2,67.9,29.92,East,95,3.0,7.0,60,0.00,,BKN250,0.00,VWS V14.01,2013-06-20 00:23:00,
2013-06-19 19:28:00,83.2,69.8,29.92,East,100,2.0,7.0,64,0.00,,BKN250,0.00,VWS V14.01,2013-06-20 00:28:00,
2013-06-19 19:33:00,83.0,69.1,29.92,ESE,119,2.0,7.0,63,0.00,,BKN250,0.00,VWS V14.01,2013-06-20 00:33:00,
2013-06-19 19:38:00,82.6,69.2,29.92,SE,130,3.0,7.0,64,0.00,,BKN250,0.00,VWS V14.01,2013-06-20 00:38:00,
2013-06-19 19:43:00,82.2,69.3,29.92,ESE,103,3.0,7.0,65,0.00,,BKN250,0.00,VWS V14.01,2013-06-20 00:43:00,
2013-06-19 19:48:00,82.2,68.8,29.92,East,80,2.0,7.0,64,0.00,,BKN250,0.00,VWS V14.01,2013-06-20 00:48:00,
2013-06-19 19:53:00,82.0,69.1,29.92,ESE,103,5.0,7.0,65,0.00,,BKN250,0.00,VWS V14.01,2013-06-20 00:53:00,
2013-06-19 19:59:00,82.0,68.6,29.92,ENE,78,0.0,7.0,64,0.00,,BKN250,0.00,VWS V14.01,2013-06-20 00:59:00,
2013-06-19 20:04:00,81.8,68.9,29.93,East,85,2.0,3.0,65,0.00,,BKN250,0.00,VWS V14.01,2013-06-20 01:04:00,
2013-06-19 20:09:00,81.6,68.2,29.93,East,99,1.0,6.0,64,0.00,,BKN250,0.00,VWS V14.01,2013-06-20 01:09:00,
2013-06-19 20:14:00,81.6,68.2,29.93,East,93,2.0,6.0,64,0.00,,BKN250,0.00,VWS V14.01,2013-06-20 01:14:00,
2013-06-19 20:19:00,81.4,68.5,29.92,East,100,0.0,6.0,65,0.00,,BKN250,0.00,VWS V14.01,2013-06-20 01:19:00,
2013-06-19 20:24:00,81.2,68.8,29.92,ESE,119,0.0,6.0,66,0.00,,BKN250,0.00,VWS V14.01,2013-06-20 01:24:00,
2013-06-19 20:29:00,80.9,68.5,29.92,ESE,119,0.0,6.0,66,0.00,,BKN250,0.00,VWS V14.01,2013-06-20 01:29:00,
2013-06-19 20:34:00,80.7,68.3,29.92,ESE,107,2.0,6.0,66,0.00,,BKN250,0.00,VWS V14.01,2013-06-20 01:34:00,
2013-06-19 20:39:00,80.5,68.5,29.92,East,82,0.0,6.0,67,0.00,,BKN250,0.00,VWS V14.01,2013-06-20 01:39:00,
2013-06-19 20:44:00,80.3,68.8,29.92,ESE,114,1.0,6.0,68,0.00,,BKN250,0.00,VWS V14.01,2013-06-20 01:44:00,
2013-06-19 20:49:00,80.1,68.6,29.93,ESE,102,0.0,6.0,68,0.00,,BKN250,0.00,VWS V14.01,2013-06-20 01:49:00,
2013-06-19 20:54:00,79.9,68.4,29.93,East,97,0.0,6.0,68,0.00,,BKN250,0.00,VWS V14.01,2013-06-20 01:54:00,
2013-06-19 20:59:00,79.8,68.7,29.93,SE,131,1.0,6.0,69,0.00,,BKN250,0.00,VWS V14.01,2013-06-20 01:59:00,
2013-06-19 21:04:00,79.8,68.7,29.93,SSE,148,0.0,2.0,69,0.00,,BKN250,0.00,VWS V14.01,2013-06-20 02:04:00,
2013-06-19 21:09:00,79.6,68.5,29.93,East,95,0.0,2.0,69,0.00,,BKN250,0.00,VWS V14.01,2013-06-20 02:09:00,
2013-06-19 21:14:00,79.6,68.5,29.93,ESE,116,5.0,5.0,69,0.00,,BKN250,0.00,VWS V14.01,2013-06-20 02:14:00,
2013-06-19 21:19:00,79.4,68.3,29.93,ESE,104,2.0,6.0,69,0.00,,BKN250,0.00,VWS V14.01,2013-06-20 02:19:00,
2013-06-19 21:24:00,79.4,68.3,29.93,ESE,107,2.0,6.0,69,0.00,,BKN250,0.00,VWS V14.01,2013-06-20 02:24:00,
2013-06-19 21:29:00,79.2,68.2,29.94,ESE,106,5.0,6.0,69,0.00,,BKN250,0.00,VWS V14.01,2013-06-20 02:29:00,
2013-06-19 21:34:00,79.2,68.2,29.94,East,86,0.0,6.0,69,0.00,,BKN250,0.00,VWS V14.01,2013-06-20 02:34:00,
2013-06-19 21:39:00,79.2,67.7,29.94,SE,136,0.0,6.0,68,0.00,,BKN250,0.00,VWS V14.01,2013-06-20 02:39:00,
2013-06-19 21:44:00,78.8,67.8,29.95,SE,137,0.0,6.0,69,0.00,,BKN250,0.00,VWS V14.01,2013-06-20 02:44:00,
2013-06-19 21:49:00,78.6,67.6,29.95,ESE,121,0.0,6.0,69,0.00,,BKN250,0.00,VWS V14.01,2013-06-20 02:49:00,
2013-06-19 21:54:00,78.6,67.6,29.95,East,86,0.0,6.0,69,0.00,,BKN250,0.00,VWS V14.01,2013-06-20 02:54:00,
2013-06-19 21:59:00,78.5,67.9,29.95,ESE,119,1.0,6.0,70,0.00,,BKN250,0.00,VWS V14.01,2013-06-20 02:59:00,
2013-06-19 22:05:00,78.3,67.7,29.95,SE,126,0.0,3.0,70,0.00,,SCT250,0.00,VWS V14.01,2013-06-20 03:05:00,
2013-06-19 22:10:00,78.1,67.5,29.95,SSE,147,0.0,5.0,70,0.00,,SCT250,0.00,VWS V14.01,2013-06-20 03:10:00,
2013-06-19 22:15:00,78.1,67.5,29.96,East,90,2.0,5.0,70,0.00,,SCT250,0.00,VWS V14.01,2013-06-20 03:15:00,
2013-06-19 22:20:00,78.1,67.5,29.96,ESE,123,2.0,5.0,70,0.00,,SCT250,0.00,VWS V14.01,2013-06-20 03:20:00,
2013-06-19 22:25:00,77.9,67.3,29.96,ESE,114,0.0,5.0,70,0.00,,SCT250,0.00,VWS V14.01,2013-06-20 03:25:00,
2013-06-19 22:30:00,77.9,67.3,29.97,ESE,117,0.0,5.0,70,0.00,,SCT250,0.00,VWS V14.01,2013-06-20 03:30:00,
2013-06-19 22:35:00,77.7,67.6,29.97,SE,130,0.0,5.0,71,0.00,,SCT250,0.00,VWS V14.01,2013-06-20 03:35:00,
2013-06-19 22:40:00,77.6,67.5,29.97,ESE,112,1.0,5.0,71,0.00,,SCT250,0.00,VWS V14.01,2013-06-20 03:40:00,
2013-06-19 22:45:00,77.6,67.5,29.98,East,96,0.0,5.0,71,0.00,,SCT250,0.00,VWS V14.01,2013-06-20 03:45:00,
2013-06-19 22:50:00,77.6,67.5,29.98,East,95,2.0,5.0,71,0.00,,SCT250,0.00,VWS V14.01,2013-06-20 03:50:00,
2013-06-19 22:55:00,77.6,67.1,29.98,ENE,78,0.0,5.0,70,0.00,,SCT250,0.00,VWS V14.01,2013-06-20 03:55:00,
2013-06-19 23:00:00,77.4,66.9,29.98,SE,130,0.0,6.0,70,0.00,,SCT250,0.00,VWS V14.01,2013-06-20 04:00:00,
2013-06-19 23:01:00,77.4,66.9,29.98,SE,126,0.0,0.0,70,0.00,,BKN250,0.00,VWS V14.01,2013-06-20 04:01:00,
2013-06-19 23:02:00,77.4,66.9,29.98,SE,136,1.0,2.0,70,0.00,,BKN250,0.00,VWS V14.01,2013-06-20 04:02:00,
2013-06-19 23:03:00,77.4,66.9,29.98,SE,134,0.0,2.0,70,0.00,,BKN250,0.00,VWS V14.01,2013-06-20 04:03:00,
2013-06-19 23:07:00,77.4,67.3,29.98,SE,143,5.0,5.0,71,0.00,,BKN250,0.00,VWS V14.01,2013-06-20 04:07:00,
2013-06-19 23:08:00,77.4,67.3,29.98,SSE,151,0.0,6.0,71,0.00,,BKN250,0.00,VWS V14.01,2013-06-20 04:08:00,
2013-06-19 23:13:00,77.2,67.1,29.98,SSE,155,0.0,6.0,71,0.00,,BKN250,0.00,VWS V14.01,2013-06-20 04:13:00,
2013-06-19 23:18:00,77.2,67.1,29.97,East,88,1.0,6.0,71,0.00,,BKN250,0.00,VWS V14.01,2013-06-20 04:18:00,
2013-06-19 23:23:00,77.0,66.9,29.97,ESE,121,5.0,6.0,71,0.00,,BKN250,0.00,VWS V14.01,2013-06-20 04:23:00,
2013-06-19 23:28:00,77.0,66.9,29.97,East,92,0.0,6.0,71,0.00,,BKN250,0.00,VWS V14.01,2013-06-20 04:28:00,
2013-06-19 23:33:00,76.8,66.7,29.98,ESE,120,1.0,6.0,71,0.00,,BKN250,0.00,VWS V14.01,2013-06-20 04:33:00,
2013-06-19 23:38:00,76.8,66.7,29.98,SSE,157,3.0,6.0,71,0.00,,BKN250,0.00,VWS V14.01,2013-06-20 04:38:00,
2013-06-19 23:43:00,76.7,66.6,29.98,ENE,66,0.0,6.0,71,0.00,,BKN250,0.00,VWS V14.01,2013-06-20 04:43:00,
2013-06-19 23:48:00,76.5,66.8,29.97,SSE,167,3.0,6.0,72,0.00,,BKN250,0.00,VWS V14.01,2013-06-20 04:48:00,
2013-06-19 23:53:00,76.5,66.8,29.97,ENE,72,5.0,6.0,72,0.00,,BKN250,0.00,VWS V14.01,2013-06-20 04:53:00,
2013-06-19 23:58:00,76.3,66.6,29.97,SSE,167,1.0,6.0,72,0.00,,BKN250,0.00,VWS V14.01,2013-06-20 04:58:00,